QFA321 YSSY-YMML
Flight info
| Callsign | QFA321 |
|---|---|
| Flight time | 1h 24m |
| Altitude | 34000 |
| Route | WOL H65 LEECE Q29 ML |
| Aircraft | A21N/M-VGDW/C |
Departure
| Time | 2026-05-04 10:28 |
|---|---|
| Airport | Sydney Kingsford Smith International Airport (YSSY) |
Arrival
| Time | 2026-05-04 11:53 |
|---|---|
| Airport | Melbourne Airport (YMML) |
| Time | Latitude | Longitude | Altitude | Speed | Heading |
|---|---|---|---|---|---|
| 2026-05-04 09:47 | -33.93141 | 151.17802 | 22 ft | 0 kts | 189° |
| 2026-05-04 10:09 | -33.93128 | 151.17806 | 22 ft | 2 kts | 187° |
| 2026-05-04 10:09 | -33.93113 | 151.17809 | 22 ft | 2 kts | 191° |
| 2026-05-04 10:09 | -33.93098 | 151.17812 | 22 ft | 2 kts | 205° |
| 2026-05-04 10:09 | -33.93086 | 151.17822 | 22 ft | 2 kts | 224° |
| 2026-05-04 10:10 | -33.93077 | 151.17836 | 22 ft | 2 kts | 243° |
| 2026-05-04 10:10 | -33.93072 | 151.17853 | 22 ft | 2 kts | 261° |
| 2026-05-04 10:10 | -33.93071 | 151.17866 | 22 ft | 0 kts | 276° |
| 2026-05-04 10:10 | -33.93073 | 151.17874 | 22 ft | 0 kts | 279° |
| 2026-05-04 10:13 | -33.93072 | 151.17871 | 22 ft | 1 kts | 279° |
| 2026-05-04 10:14 | -33.93069 | 151.17845 | 22 ft | 5 kts | 279° |
| 2026-05-04 10:14 | -33.93060 | 151.17787 | 22 ft | 8 kts | 281° |
| 2026-05-04 10:16 | -33.93395 | 151.17595 | 13 ft | 15 kts | 176° |
| 2026-05-04 10:16 | -33.93507 | 151.17589 | 9 ft | 17 kts | 167° |
| 2026-05-04 10:16 | -33.93630 | 151.17629 | 9 ft | 18 kts | 154° |
| 2026-05-04 10:16 | -33.93754 | 151.17690 | 9 ft | 20 kts | 168° |
| 2026-05-04 10:17 | -33.93869 | 151.17760 | 10 ft | 17 kts | 155° |
| 2026-05-04 10:17 | -33.93980 | 151.17799 | 11 ft | 16 kts | 167° |
| 2026-05-04 10:19 | -33.94868 | 151.17973 | 26 ft | 23 kts | 167° |
| 2026-05-04 10:19 | -33.95010 | 151.18012 | 24 ft | 15 kts | 170° |
| 2026-05-04 10:19 | -33.95099 | 151.18048 | 21 ft | 13 kts | 121° |
| 2026-05-04 10:19 | -33.95097 | 151.18141 | 21 ft | 10 kts | 77° |
| 2026-05-04 10:20 | -33.95079 | 151.18237 | 20 ft | 13 kts | 79° |
| 2026-05-04 10:20 | -33.95057 | 151.18364 | 18 ft | 17 kts | 78° |
| 2026-05-04 10:20 | -33.95071 | 151.18503 | 16 ft | 18 kts | 145° |
| 2026-05-04 10:20 | -33.95169 | 151.18602 | 15 ft | 18 kts | 137° |
| 2026-05-04 10:21 | -33.95278 | 151.18703 | 12 ft | 20 kts | 157° |
| 2026-05-04 10:21 | -33.95420 | 151.18744 | 11 ft | 21 kts | 165° |
| 2026-05-04 10:21 | -33.95571 | 151.18788 | 10 ft | 23 kts | 165° |
| 2026-05-04 10:21 | -33.95739 | 151.18832 | 9 ft | 26 kts | 169° |
| 2026-05-04 10:22 | -33.96116 | 151.18932 | 9 ft | 27 kts | 168° |
| 2026-05-04 10:22 | -33.96297 | 151.18976 | 9 ft | 25 kts | 167° |
| 2026-05-04 10:22 | -33.96460 | 151.19019 | 10 ft | 22 kts | 168° |
| 2026-05-04 10:23 | -33.96605 | 151.19058 | 11 ft | 20 kts | 167° |
| 2026-05-04 10:23 | -33.96743 | 151.19078 | 12 ft | 19 kts | 186° |
| 2026-05-04 10:25 | -33.97130 | 151.19218 | 12 ft | 1 kts | 79° |
| 2026-05-04 10:25 | -33.97127 | 151.19240 | 12 ft | 4 kts | 78° |
| 2026-05-04 10:25 | -33.97117 | 151.19293 | 12 ft | 9 kts | 77° |
| 2026-05-04 10:25 | -33.97098 | 151.19368 | 12 ft | 8 kts | 54° |
| 2026-05-04 10:26 | -33.97052 | 151.19374 | 12 ft | 0 kts | 349° |
| 2026-05-04 10:27 | -33.97038 | 151.19371 | 12 ft | 12 kts | 348° |
| 2026-05-04 10:27 | -33.96683 | 151.19282 | 12 ft | 88 kts | 348° |
| 2026-05-04 10:28 | -33.95866 | 151.19067 | 10 ft | 149 kts | 349° |
| 2026-05-04 10:28 | -33.94745 | 151.18796 | 392 ft | 167 kts | 350° |
| 2026-05-04 10:28 | -33.93629 | 151.18709 | 1107 ft | 164 kts | 15° |
| 2026-05-04 10:28 | -33.92834 | 151.19629 | 1674 ft | 172 kts | 59° |
| 2026-05-04 10:29 | -33.92651 | 151.21132 | 1989 ft | 196 kts | 97° |
| 2026-05-04 10:29 | -33.93235 | 151.22650 | 2393 ft | 207 kts | 115° |
| 2026-05-04 10:29 | -33.93933 | 151.24165 | 2870 ft | 209 kts | 108° |
| 2026-05-04 10:29 | -33.94094 | 151.25896 | 3191 ft | 211 kts | 77° |
| 2026-05-04 10:30 | -33.93893 | 151.27684 | 3556 ft | 225 kts | 78° |
| 2026-05-04 10:30 | -33.93745 | 151.29608 | 3945 ft | 240 kts | 81° |
| 2026-05-04 10:30 | -33.93674 | 151.31703 | 4273 ft | 260 kts | 84° |
| 2026-05-04 10:30 | -33.93620 | 151.33948 | 4695 ft | 275 kts | 83° |
| 2026-05-04 10:31 | -33.93545 | 151.36270 | 5263 ft | 284 kts | 83° |
| 2026-05-04 10:31 | -33.93644 | 151.38680 | 5895 ft | 295 kts | 101° |
| 2026-05-04 10:32 | -34.03809 | 151.42114 | 9785 ft | 290 kts | 234° |
| 2026-05-04 10:33 | -34.05103 | 151.40282 | 10351 ft | 293 kts | 236° |
| 2026-05-04 10:33 | -34.06452 | 151.38365 | 10665 ft | 309 kts | 235° |
| 2026-05-04 10:33 | -34.07937 | 151.36379 | 10941 ft | 325 kts | 233° |
| 2026-05-04 10:33 | -34.09534 | 151.34346 | 11198 ft | 340 kts | 231° |
| 2026-05-04 10:34 | -34.11198 | 151.32298 | 11525 ft | 352 kts | 231° |
| 2026-05-04 10:34 | -34.12951 | 151.30188 | 12072 ft | 356 kts | 230° |
| 2026-05-04 10:34 | -34.14704 | 151.28101 | 12686 ft | 358 kts | 231° |
| 2026-05-04 10:34 | -34.16488 | 151.25983 | 13231 ft | 361 kts | 231° |
| 2026-05-04 10:35 | -34.18269 | 151.23866 | 13761 ft | 364 kts | 231° |
| 2026-05-04 10:35 | -34.20085 | 151.21710 | 14277 ft | 367 kts | 231° |
| 2026-05-04 10:35 | -34.21941 | 151.19499 | 14536 ft | 379 kts | 231° |
| 2026-05-04 10:35 | -34.23832 | 151.17246 | 14747 ft | 390 kts | 231° |
| 2026-05-04 10:36 | -34.25786 | 151.14920 | 14966 ft | 401 kts | 230° |
| 2026-05-04 10:36 | -34.27806 | 151.12518 | 15140 ft | 412 kts | 231° |
| 2026-05-04 10:36 | -34.29873 | 151.10056 | 15319 ft | 422 kts | 230° |
| 2026-05-04 10:36 | -34.31278 | 151.08385 | 15451 ft | 428 kts | 230° |
| 2026-05-04 10:37 | -34.34127 | 151.04991 | 15876 ft | 434 kts | 230° |
| 2026-05-04 10:37 | -34.36283 | 151.02426 | 16306 ft | 436 kts | 231° |
| 2026-05-04 10:37 | -34.38456 | 150.99837 | 16672 ft | 438 kts | 230° |
| 2026-05-04 10:37 | -34.39897 | 150.98117 | 16923 ft | 440 kts | 230° |
| 2026-05-04 10:39 | -34.53910 | 150.81293 | 19122 ft | 452 kts | 233° |
| 2026-05-04 10:39 | -34.56015 | 150.78444 | 19443 ft | 452 kts | 236° |
| 2026-05-04 10:39 | -34.57966 | 150.75485 | 19780 ft | 450 kts | 239° |
| 2026-05-04 10:40 | -34.59833 | 150.72429 | 20074 ft | 452 kts | 240° |
| 2026-05-04 10:40 | -34.61672 | 150.69369 | 20381 ft | 453 kts | 240° |
| 2026-05-04 10:40 | -34.63531 | 150.66269 | 20690 ft | 454 kts | 240° |
| 2026-05-04 10:40 | -34.65393 | 150.63165 | 21005 ft | 455 kts | 240° |
| 2026-05-04 10:41 | -34.67242 | 150.60082 | 21293 ft | 457 kts | 240° |
| 2026-05-04 10:41 | -34.69130 | 150.56935 | 21589 ft | 458 kts | 240° |
| 2026-05-04 10:41 | -34.71016 | 150.53793 | 21884 ft | 459 kts | 240° |
| 2026-05-04 10:41 | -34.72875 | 150.50694 | 22235 ft | 459 kts | 240° |
| 2026-05-04 10:42 | -34.74767 | 150.47536 | 22482 ft | 461 kts | 240° |
| 2026-05-04 10:42 | -34.76638 | 150.44412 | 22696 ft | 463 kts | 240° |
| 2026-05-04 10:42 | -34.77922 | 150.42267 | 22854 ft | 464 kts | 240° |
| 2026-05-04 10:42 | -34.80441 | 150.38052 | 23167 ft | 465 kts | 240° |
| 2026-05-04 10:43 | -34.82332 | 150.34885 | 23393 ft | 466 kts | 241° |
| 2026-05-04 10:44 | -34.95530 | 150.12724 | 25737 ft | 458 kts | 242° |
| 2026-05-04 10:45 | -34.97384 | 150.09598 | 26046 ft | 457 kts | 242° |
| 2026-05-04 10:45 | -34.99250 | 150.06447 | 26338 ft | 457 kts | 242° |
| 2026-05-04 10:45 | -35.01094 | 150.03332 | 26675 ft | 456 kts | 242° |
| 2026-05-04 10:45 | -35.02955 | 150.00188 | 27011 ft | 454 kts | 242° |
| 2026-05-04 10:46 | -35.04183 | 149.98109 | 27203 ft | 454 kts | 242° |
| 2026-05-04 10:46 | -35.06628 | 149.93967 | 27596 ft | 453 kts | 242° |
| 2026-05-04 10:46 | -35.08467 | 149.90846 | 27920 ft | 452 kts | 242° |
| 2026-05-04 10:46 | -35.10303 | 149.87729 | 28230 ft | 451 kts | 242° |
| 2026-05-04 10:47 | -35.12125 | 149.84636 | 28497 ft | 451 kts | 242° |
| 2026-05-04 10:47 | -35.13957 | 149.81522 | 28791 ft | 450 kts | 243° |
| 2026-05-04 10:47 | -35.15155 | 149.79481 | 28977 ft | 449 kts | 243° |
| 2026-05-04 10:47 | -35.17564 | 149.75378 | 29373 ft | 447 kts | 243° |
| 2026-05-04 10:49 | -35.30073 | 149.54009 | 31421 ft | 436 kts | 243° |
| 2026-05-04 10:49 | -35.31802 | 149.51039 | 31703 ft | 434 kts | 243° |
| 2026-05-04 10:50 | -35.33558 | 149.48025 | 31982 ft | 432 kts | 243° |
| 2026-05-04 10:51 | -35.45649 | 149.27196 | 33483 ft | 429 kts | 244° |
| 2026-05-04 10:52 | -35.47375 | 149.24210 | 33658 ft | 429 kts | 244° |
| 2026-05-04 10:52 | -35.49104 | 149.21217 | 33808 ft | 429 kts | 244° |
| 2026-05-04 10:52 | -35.50824 | 149.18237 | 33905 ft | 431 kts | 244° |
| 2026-05-04 10:54 | -35.62970 | 148.97142 | 34061 ft | 435 kts | 244° |
| 2026-05-04 10:54 | -35.64722 | 148.94089 | 34062 ft | 434 kts | 244° |
| 2026-05-04 10:56 | -35.78574 | 148.69853 | 34054 ft | 434 kts | 244° |
| 2026-05-04 10:57 | -35.82021 | 148.63797 | 34052 ft | 435 kts | 244° |
| 2026-05-04 10:57 | -35.85486 | 148.57703 | 34056 ft | 435 kts | 244° |
| 2026-05-04 10:58 | -35.88941 | 148.51604 | 34058 ft | 435 kts | 244° |
| 2026-05-04 10:58 | -35.92392 | 148.45474 | 34060 ft | 435 kts | 244° |
| 2026-05-04 10:59 | -35.95819 | 148.39383 | 34066 ft | 434 kts | 244° |
| 2026-05-04 10:59 | -35.99246 | 148.33276 | 34058 ft | 436 kts | 245° |
| 2026-05-04 11:00 | -36.02700 | 148.27121 | 34065 ft | 436 kts | 244° |
| 2026-05-04 11:02 | -36.16479 | 148.02475 | 34083 ft | 438 kts | 244° |
| 2026-05-04 11:05 | -36.42412 | 147.55696 | 34050 ft | 441 kts | 244° |
| 2026-05-04 11:06 | -36.45866 | 147.49411 | 34055 ft | 442 kts | 244° |
| 2026-05-04 11:06 | -36.49297 | 147.43152 | 34047 ft | 441 kts | 244° |
| 2026-05-04 11:10 | -36.73458 | 146.98764 | 34029 ft | 447 kts | 244° |
| 2026-05-04 11:12 | -36.87137 | 146.73369 | 34005 ft | 430 kts | 244° |
| 2026-05-04 11:12 | -36.88790 | 146.70309 | 34010 ft | 414 kts | 245° |
| 2026-05-04 11:12 | -36.90359 | 146.67394 | 34008 ft | 407 kts | 245° |
| 2026-05-04 11:13 | -36.93448 | 146.61609 | 34010 ft | 399 kts | 245° |
| 2026-05-04 11:13 | -36.96542 | 146.55804 | 34003 ft | 400 kts | 245° |
| 2026-05-04 11:14 | -36.99598 | 146.50064 | 34032 ft | 399 kts | 245° |
| 2026-05-04 11:16 | -37.13391 | 146.29726 | 34004 ft | 454 kts | 199° |
| 2026-05-04 11:16 | -37.16596 | 146.29613 | 34006 ft | 476 kts | 177° |
| 2026-05-04 11:16 | -37.19791 | 146.30901 | 34008 ft | 490 kts | 155° |
| 2026-05-04 11:17 | -37.22533 | 146.33478 | 34018 ft | 497 kts | 134° |
| 2026-05-04 11:17 | -37.24477 | 146.37045 | 34009 ft | 495 kts | 111° |
| 2026-05-04 11:19 | -37.15744 | 146.59816 | 34000 ft | 442 kts | 46° |
| 2026-05-04 11:19 | -37.14004 | 146.62975 | 34048 ft | 446 kts | 47° |
| 2026-05-04 11:19 | -37.10078 | 146.68608 | 33990 ft | 411 kts | 20° |
| 2026-05-04 11:20 | -37.07475 | 146.69869 | 34028 ft | 391 kts | 2° |
| 2026-05-04 11:20 | -37.04845 | 146.70032 | 34022 ft | 375 kts | 346° |
| 2026-05-04 11:20 | -37.02369 | 146.69263 | 34017 ft | 365 kts | 332° |
| 2026-05-04 11:20 | -37.00194 | 146.67674 | 34034 ft | 359 kts | 319° |
| 2026-05-04 11:22 | -37.00983 | 146.47488 | 34012 ft | 399 kts | 245° |
| 2026-05-04 11:22 | -37.02494 | 146.44614 | 34013 ft | 399 kts | 245° |
| 2026-05-04 11:23 | -37.05559 | 146.38840 | 34096 ft | 399 kts | 245° |
| 2026-05-04 11:24 | -37.20247 | 146.31239 | 34007 ft | 492 kts | 152° |
| 2026-05-04 11:25 | -37.22896 | 146.33995 | 34010 ft | 497 kts | 130° |
| 2026-05-04 11:25 | -37.24677 | 146.37651 | 34015 ft | 494 kts | 109° |
| 2026-05-04 11:25 | -37.25409 | 146.41779 | 34002 ft | 483 kts | 86° |
| 2026-05-04 11:26 | -37.23606 | 146.49350 | 33998 ft | 440 kts | 43° |
| 2026-05-04 11:27 | -37.09597 | 146.68936 | 34012 ft | 409 kts | 16° |
| 2026-05-04 11:28 | -37.06948 | 146.69980 | 34033 ft | 387 kts | 359° |
| 2026-05-04 11:28 | -37.04326 | 146.69945 | 34016 ft | 372 kts | 343° |
| 2026-05-04 11:28 | -37.01912 | 146.69017 | 33960 ft | 359 kts | 329° |
| 2026-05-04 11:28 | -36.99861 | 146.67363 | 33629 ft | 351 kts | 316° |
| 2026-05-04 11:29 | -36.98255 | 146.65071 | 33005 ft | 351 kts | 303° |
| 2026-05-04 11:29 | -36.97225 | 146.62334 | 32433 ft | 356 kts | 290° |
| 2026-05-04 11:29 | -36.96810 | 146.59239 | 32101 ft | 368 kts | 276° |
| 2026-05-04 11:29 | -36.97104 | 146.56050 | 32028 ft | 383 kts | 262° |
| 2026-05-04 11:31 | -37.07488 | 146.35211 | 31528 ft | 422 kts | 245° |
| 2026-05-04 11:33 | -37.19457 | 146.12581 | 25229 ft | 456 kts | 241° |
| 2026-05-04 11:33 | -37.21184 | 146.09308 | 24353 ft | 457 kts | 241° |
| 2026-05-04 11:33 | -37.22943 | 146.05975 | 23394 ft | 458 kts | 240° |
| 2026-05-04 11:34 | -37.24663 | 146.02722 | 22709 ft | 448 kts | 240° |
| 2026-05-04 11:34 | -37.26363 | 145.99507 | 21807 ft | 438 kts | 240° |
| 2026-05-04 11:34 | -37.28013 | 145.96374 | 20708 ft | 432 kts | 240° |
| 2026-05-04 11:34 | -37.29664 | 145.93234 | 19581 ft | 427 kts | 240° |
| 2026-05-04 11:35 | -37.31280 | 145.90160 | 18638 ft | 417 kts | 240° |
| 2026-05-04 11:35 | -37.32839 | 145.87190 | 17938 ft | 402 kts | 240° |
| 2026-05-04 11:35 | -37.34325 | 145.84358 | 17195 ft | 385 kts | 240° |
| 2026-05-04 11:35 | -37.35766 | 145.81613 | 16549 ft | 367 kts | 240° |
| 2026-05-04 11:36 | -37.37144 | 145.78976 | 16314 ft | 351 kts | 240° |
| 2026-05-04 11:36 | -37.38447 | 145.76488 | 16075 ft | 330 kts | 240° |
| 2026-05-04 11:36 | -37.39670 | 145.74144 | 15847 ft | 320 kts | 240° |
| 2026-05-04 11:36 | -37.40868 | 145.71843 | 15628 ft | 310 kts | 241° |
| 2026-05-04 11:37 | -37.42024 | 145.69620 | 15517 ft | 298 kts | 241° |
| 2026-05-04 11:37 | -37.43143 | 145.67473 | 15387 ft | 286 kts | 241° |
| 2026-05-04 11:37 | -37.44215 | 145.65413 | 15257 ft | 277 kts | 241° |
| 2026-05-04 11:37 | -37.45274 | 145.63431 | 15129 ft | 274 kts | 239° |
| 2026-05-04 11:38 | -37.46388 | 145.61494 | 14764 ft | 275 kts | 238° |
| 2026-05-04 11:38 | -37.47516 | 145.59555 | 14408 ft | 274 kts | 238° |
| 2026-05-04 11:38 | -37.48648 | 145.57608 | 14058 ft | 273 kts | 238° |
| 2026-05-04 11:38 | -37.49759 | 145.55702 | 13723 ft | 271 kts | 238° |
| 2026-05-04 11:39 | -37.50908 | 145.53720 | 13387 ft | 291 kts | 238° |
| 2026-05-04 11:39 | -37.52082 | 145.51694 | 13084 ft | 289 kts | 238° |
| 2026-05-04 11:40 | -37.59051 | 145.39681 | 10874 ft | 276 kts | 238° |
| 2026-05-04 11:41 | -37.60180 | 145.37732 | 10536 ft | 273 kts | 238° |
| 2026-05-04 11:41 | -37.61295 | 145.35800 | 10197 ft | 271 kts | 238° |
| 2026-05-04 11:41 | -37.62385 | 145.33913 | 9858 ft | 269 kts | 238° |
| 2026-05-04 11:41 | -37.63482 | 145.32014 | 9515 ft | 267 kts | 239° |
| 2026-05-04 11:42 | -37.64566 | 145.30141 | 9189 ft | 264 kts | 239° |
| 2026-05-04 11:42 | -37.65648 | 145.28265 | 8865 ft | 262 kts | 239° |
| 2026-05-04 11:42 | -37.66719 | 145.26405 | 8536 ft | 260 kts | 239° |
| 2026-05-04 11:42 | -37.67772 | 145.24574 | 8214 ft | 258 kts | 239° |
| 2026-05-04 11:43 | -37.68814 | 145.22765 | 7899 ft | 256 kts | 239° |
| 2026-05-04 11:43 | -37.69848 | 145.20969 | 7586 ft | 254 kts | 238° |
| 2026-05-04 11:43 | -37.70879 | 145.19176 | 7271 ft | 251 kts | 239° |
| 2026-05-04 11:43 | -37.71900 | 145.17403 | 6954 ft | 249 kts | 238° |
| 2026-05-04 11:44 | -37.72910 | 145.15645 | 6645 ft | 247 kts | 238° |
| 2026-05-04 11:44 | -37.73922 | 145.13881 | 6336 ft | 245 kts | 239° |
| 2026-05-04 11:44 | -37.74909 | 145.12169 | 6113 ft | 238 kts | 239° |
| 2026-05-04 11:44 | -37.75857 | 145.10521 | 6017 ft | 231 kts | 239° |
| 2026-05-04 11:45 | -37.76816 | 145.08844 | 5860 ft | 233 kts | 239° |
| 2026-05-04 11:45 | -37.77755 | 145.07204 | 5532 ft | 233 kts | 239° |
| 2026-05-04 11:45 | -37.78701 | 145.05551 | 5220 ft | 226 kts | 239° |
| 2026-05-04 11:45 | -37.79607 | 145.03972 | 4931 ft | 219 kts | 239° |
| 2026-05-04 11:46 | -37.80479 | 145.02452 | 4653 ft | 212 kts | 239° |
| 2026-05-04 11:46 | -37.81211 | 145.00899 | 4395 ft | 200 kts | 251° |
| 2026-05-04 11:46 | -37.81628 | 144.99304 | 4244 ft | 183 kts | 260° |
| 2026-05-04 11:46 | -37.81908 | 144.97778 | 3956 ft | 175 kts | 262° |
| 2026-05-04 11:47 | -37.82162 | 144.96320 | 3702 ft | 166 kts | 262° |
| 2026-05-04 11:47 | -37.82408 | 144.94904 | 3475 ft | 162 kts | 263° |
| 2026-05-04 11:47 | -37.82601 | 144.93538 | 3238 ft | 154 kts | 265° |
| 2026-05-04 11:47 | -37.82763 | 144.92236 | 3042 ft | 150 kts | 265° |
| 2026-05-04 11:48 | -37.82929 | 144.90922 | 2838 ft | 150 kts | 266° |
| 2026-05-04 11:48 | -37.83090 | 144.89636 | 2636 ft | 149 kts | 266° |
| 2026-05-04 11:48 | -37.83043 | 144.88356 | 2464 ft | 146 kts | 291° |
| 2026-05-04 11:48 | -37.82464 | 144.87280 | 2456 ft | 151 kts | 321° |
| 2026-05-04 11:49 | -37.81519 | 144.86732 | 2460 ft | 151 kts | 337° |
| 2026-05-04 11:49 | -37.80494 | 144.86415 | 2454 ft | 149 kts | 341° |
| 2026-05-04 11:49 | -37.79468 | 144.86171 | 2443 ft | 149 kts | 343° |
| 2026-05-04 11:49 | -37.78449 | 144.85962 | 2277 ft | 148 kts | 344° |
| 2026-05-04 11:50 | -37.77433 | 144.85768 | 2109 ft | 146 kts | 345° |
| 2026-05-04 11:50 | -37.76431 | 144.85580 | 1922 ft | 145 kts | 346° |
| 2026-05-04 11:50 | -37.75435 | 144.85394 | 1719 ft | 144 kts | 346° |
| 2026-05-04 11:50 | -37.74446 | 144.85217 | 1506 ft | 144 kts | 348° |
| 2026-05-04 11:51 | -37.73455 | 144.85039 | 1304 ft | 143 kts | 347° |
| 2026-05-04 11:51 | -37.72455 | 144.84828 | 1144 ft | 144 kts | 348° |
| 2026-05-04 11:51 | -37.71476 | 144.84653 | 939 ft | 143 kts | 350° |
| 2026-05-04 11:51 | -37.70484 | 144.84471 | 753 ft | 143 kts | 350° |
| 2026-05-04 11:52 | -37.69507 | 144.84285 | 568 ft | 143 kts | 351° |
| 2026-05-04 11:52 | -37.68527 | 144.84091 | 384 ft | 141 kts | 352° |
| 2026-05-04 11:52 | -37.67598 | 144.83923 | 368 ft | 118 kts | 352° |
| 2026-05-04 11:52 | -37.66989 | 144.83844 | 386 ft | 59 kts | 15° |
| 2026-05-04 11:53 | -37.66776 | 144.83943 | 393 ft | 12 kts | 22° |
| 2026-05-04 11:53 | -37.66699 | 144.83983 | 395 ft | 10 kts | 21° |
| 2026-05-04 11:53 | -37.66634 | 144.84013 | 397 ft | 9 kts | 21° |
| 2026-05-04 11:53 | -37.66581 | 144.84042 | 398 ft | 7 kts | 36° |
| 2026-05-04 11:55 | -37.66672 | 144.84442 | 395 ft | 4 kts | 81° |
| 2026-05-04 11:55 | -37.66667 | 144.84482 | 395 ft | 4 kts | 81° |
| 2026-05-04 11:56 | -37.66659 | 144.84546 | 397 ft | 10 kts | 81° |
| 2026-05-04 11:56 | -37.66648 | 144.84645 | 399 ft | 11 kts | 83° |
| 2026-05-04 11:56 | -37.66636 | 144.84740 | 403 ft | 9 kts | 65° |
| 2026-05-04 11:56 | -37.66625 | 144.84764 | 404 ft | 10 kts | 58° |